Time;durP1;ratioP1;P1;durP2;ratioP2;P2;SDS_P1;SDS_P2;PMS_P1;PMS_P2;Temp;Humidity;BMP_temperature;BMP_pressure;BME280_temperature;BME280_humidity;BME280_pressure;Samples;Min_cycle;Max_cycle;Signal;HPM_P1;HPM_P2
2023/11/14 00:03:06;;;;;;;141.50;77.30;;;;;;;4.02;100.00;97600.88;273447;1270;22380;-80
2023/11/14 00:09:13;;;;;;;144.50;83.50;;;;;;;4.03;100.00;97589.77;273337;1269;22199;-81
2023/11/14 00:15:39;;;;;;;148.20;77.90;;;;;;;4.00;100.00;97592.66;273377;1272;22428;-81
2023/11/14 00:22:03;;;;;;;137.20;75.10;;;;;;;4.04;100.00;97586.92;273089;1269;22194;-81
2023/11/14 00:28:45;;;;;;;63.20;35.60;;;;;;;4.18;100.00;97576.66;273363;1270;22191;-81
2023/11/14 00:34:58;;;;;;;32.90;18.30;;;;;;;4.70;100.00;97564.75;273501;1269;22193;-81
2023/11/14 00:41:28;;;;;;;19.30;10.20;;;;;;;5.28;100.00;97542.16;272843;1269;22210;-82
2023/11/14 00:47:51;;;;;;;14.80;8.10;;;;;;;5.94;100.00;97529.16;273361;1269;22184;-81
2023/11/14 00:54:00;;;;;;;19.40;11.60;;;;;;;6.29;100.00;97522.38;273213;1269;22186;-81
2023/11/14 01:00:25;;;;;;;13.50;7.80;;;;;;;6.46;100.00;97530.98;272962;1269;22969;-81
2023/11/14 01:06:47;;;;;;;18.70;10.10;;;;;;;6.60;100.00;97550.53;273433;1269;22254;-80
2023/11/14 01:13:26;;;;;;;10.40;5.70;;;;;;;6.72;100.00;97569.45;273295;1269;22204;-81
2023/11/14 01:19:46;;;;;;;18.10;10.00;;;;;;;6.90;100.00;97595.32;273372;1269;22326;-81
2023/11/14 01:26:01;;;;;;;30.20;16.00;;;;;;;7.02;100.00;97618.98;273194;1269;22174;-82
2023/11/14 01:32:08;;;;;;;33.80;19.30;;;;;;;6.94;100.00;97657.83;272878;1269;23461;-82
2023/11/14 01:38:15;;;;;;;39.30;21.60;;;;;;;6.66;100.00;97714.09;273143;1269;22208;-82
2023/11/14 01:44:18;;;;;;;32.40;19.50;;;;;;;6.38;100.00;97708.80;273394;1269;23218;-82
2023/11/14 01:50:45;;;;;;;25.30;16.40;;;;;;;6.30;100.00;97686.54;273463;1272;22231;-83
2023/11/14 01:57:09;;;;;;;26.50;17.30;;;;;;;6.28;100.00;97672.14;273262;1266;22285;-82
2023/11/14 02:03:32;;;;;;;26.00;14.70;;;;;;;6.33;100.00;97665.73;273542;1272;22942;-82
2023/11/14 02:09:55;;;;;;;19.80;14.10;;;;;;;6.54;100.00;97639.84;273398;1272;22176;-82
2023/11/14 02:16:20;;;;;;;15.90;9.50;;;;;;;6.72;100.00;97658.11;273549;1272;22507;-82
2023/11/14 02:22:57;;;;;;;15.00;9.10;;;;;;;6.92;100.00;97634.73;273560;1270;22189;-82
2023/11/14 02:29:22;;;;;;;13.10;6.70;;;;;;;7.06;100.00;97641.16;273108;1273;22210;-82
2023/11/14 02:35:24;;;;;;;8.10;5.30;;;;;;;7.23;100.00;97652.55;271942;1261;112082;-86
2023/11/14 02:41:27;;;;;;;9.00;5.50;;;;;;;7.36;100.00;97671.57;272520;1270;22369;-88
2023/11/14 02:47:28;;;;;;;8.50;5.00;;;;;;;7.48;100.00;97683.02;272442;1269;158098;-88
2023/11/14 02:53:33;;;;;;;6.20;3.60;;;;;;;7.65;100.00;97632.08;272415;1270;22537;-88
2023/11/14 02:59:35;;;;;;;6.20;3.20;;;;;;;7.85;100.00;97572.23;272803;1269;23427;-87
2023/11/14 03:05:39;;;;;;;4.50;2.40;;;;;;;7.89;100.00;97629.69;272793;1267;22292;-86
2023/11/14 03:11:42;;;;;;;2.60;1.80;;;;;;;7.91;100.00;97608.43;272674;1271;22411;-85
2023/11/14 03:17:44;;;;;;;3.30;1.80;;;;;;;7.91;100.00;97600.02;272437;1272;22354;-85
2023/11/14 03:23:46;;;;;;;1.20;0.80;;;;;;;7.82;100.00;97596.52;272643;1267;22161;-86
2023/11/14 03:29:48;;;;;;;1.30;0.60;;;;;;;7.67;100.00;97616.38;272669;1270;22275;-86
2023/11/14 03:35:50;;;;;;;2.40;1.00;;;;;;;7.49;100.00;97630.84;272510;1270;22432;-86
2023/11/14 03:41:52;;;;;;;1.20;0.60;;;;;;;7.38;100.00;97651.90;272743;1269;22475;-87
2023/11/14 03:47:53;;;;;;;1.10;0.60;;;;;;;7.34;100.00;97665.73;272851;1270;22205;-85
2023/11/14 03:54:45;;;;;;;1.30;0.50;;;;;;;7.42;100.00;97670.17;272875;1269;22388;-86
2023/11/14 04:01:04;;;;;;;2.50;0.50;;;;;;;7.52;100.00;97670.90;272612;1270;22215;-85
2023/11/14 04:07:27;;;;;;;1.10;0.60;;;;;;;7.57;100.00;97671.77;272771;1270;22387;-86
2023/11/14 04:14:04;;;;;;;1.50;0.60;;;;;;;7.50;100.00;97691.44;272822;1264;22483;-85
2023/11/14 04:20:19;;;;;;;1.10;0.70;;;;;;;7.42;100.00;97694.99;272917;1270;22494;-86
2023/11/14 04:26:22;;;;;;;1.20;0.70;;;;;;;7.32;100.00;97698.77;272763;1270;22339;-85
2023/11/14 04:32:24;;;;;;;0.90;0.90;;;;;;;7.24;100.00;97698.36;272711;1270;22208;-86
2023/11/14 04:38:26;;;;;;;1.40;0.90;;;;;;;7.15;100.00;97698.95;272847;1270;22354;-86
2023/11/14 04:44:30;;;;;;;1.30;0.90;;;;;;;7.05;100.00;97703.10;272724;1270;22454;-86
2023/11/14 04:50:32;;;;;;;1.00;0.70;;;;;;;6.97;100.00;97710.69;272867;1270;22427;-86
2023/11/14 04:56:34;;;;;;;1.60;1.00;;;;;;;6.84;100.00;97724.30;272836;1270;24220;-87
2023/11/14 05:02:36;;;;;;;2.70;1.20;;;;;;;6.78;100.00;97742.84;272930;1263;23689;-86
2023/11/14 05:08:38;;;;;;;2.20;1.40;;;;;;;6.75;100.00;97752.68;272783;1270;22362;-85
2023/11/14 05:14:40;;;;;;;3.60;1.90;;;;;;;6.75;100.00;97763.48;272840;1270;22423;-86
2023/11/14 05:20:42;;;;;;;5.30;1.80;;;;;;;6.76;100.00;97779.89;272862;1267;23396;-86
2023/11/14 05:26:44;;;;;;;2.90;1.70;;;;;;;6.71;100.00;97788.41;272834;1270;22208;-86
2023/11/14 05:32:50;;;;;;;4.00;1.90;;;;;;;6.77;100.00;97789.23;272806;1270;23599;-87
2023/11/14 05:38:52;;;;;;;2.60;2.10;;;;;;;6.84;100.00;97793.08;272822;1267;22249;-85
2023/11/14 05:44:54;;;;;;;2.30;1.70;;;;;;;6.90;100.00;97794.91;272815;1267;22408;-85
2023/11/14 05:50:56;;;;;;;3.60;2.10;;;;;;;7.02;100.00;97805.33;272823;1270;22198;-85
2023/11/14 05:56:58;;;;;;;5.90;2.50;;;;;;;7.03;100.00;97822.59;272551;1262;22414;-85
2023/11/14 06:03:00;;;;;;;3.90;2.20;;;;;;;7.07;100.00;97839.48;272374;1267;22310;-85
2023/11/14 06:09:02;;;;;;;3.70;1.80;;;;;;;7.12;100.00;97856.08;272503;1263;22500;-88
2023/11/14 06:15:13;;;;;;;7.30;3.50;;;;;;;7.20;100.00;97862.03;272643;1270;22925;-86
2023/11/14 06:21:15;;;;;;;7.20;4.00;;;;;;;7.34;100.00;97862.67;272967;1270;22257;-87
2023/11/14 06:27:17;;;;;;;5.30;3.10;;;;;;;7.41;100.00;97870.33;272805;1259;22592;-86
2023/11/14 06:33:22;;;;;;;10.70;4.30;;;;;;;7.46;100.00;97881.40;272553;1270;22395;-86
2023/11/14 06:39:24;;;;;;;5.70;4.20;;;;;;;7.53;100.00;97889.45;272644;1270;23690;-87
2023/11/14 06:45:25;;;;;;;7.70;4.70;;;;;;;7.61;100.00;97901.02;272646;1269;22417;-87
2023/11/14 06:51:28;;;;;;;12.50;6.00;;;;;;;7.69;100.00;97912.11;272841;1270;22402;-87
2023/11/14 06:57:32;;;;;;;8.70;5.90;;;;;;;7.80;100.00;97928.05;272638;1270;22413;-87
2023/11/14 07:03:35;;;;;;;11.10;5.70;;;;;;;7.91;100.00;97935.65;272912;1270;22410;-88
2023/11/14 07:09:37;;;;;;;11.40;5.60;;;;;;;7.98;100.00;97942.54;272865;1270;22453;-86
2023/11/14 07:15:39;;;;;;;10.30;5.30;;;;;;;8.04;100.00;97946.98;272914;1268;22602;-86
2023/11/14 07:21:41;;;;;;;9.70;5.30;;;;;;;8.10;100.00;97950.67;272526;1270;22532;-86
2023/11/14 07:27:46;;;;;;;7.40;4.50;;;;;;;8.26;100.00;97945.46;272286;1270;24072;-85
2023/11/14 07:33:48;;;;;;;5.80;4.20;;;;;;;8.33;100.00;97946.27;272503;1269;23388;-87
2023/11/14 07:39:50;;;;;;;11.20;5.00;;;;;;;8.47;100.00;97945.38;272339;1270;22555;-85
2023/11/14 07:45:52;;;;;;;12.00;6.30;;;;;;;8.83;100.00;97933.59;272884;1272;22188;-86
2023/11/14 07:51:54;;;;;;;9.10;4.70;;;;;;;9.56;100.00;97922.86;272697;1270;22443;-85
2023/11/14 07:57:56;;;;;;;11.10;3.40;;;;;;;10.34;100.00;97929.65;272739;1270;22418;-84
2023/11/14 08:03:57;;;;;;;6.20;2.10;;;;;;;10.96;100.00;97940.53;272548;1267;22425;-86
2023/11/14 08:10:00;;;;;;;6.30;2.10;;;;;;;11.39;100.00;97938.39;272889;1269;22348;-85
2023/11/14 08:16:04;;;;;;;5.50;2.10;;;;;;;11.81;100.00;97943.65;272363;1270;22442;-87
2023/11/14 08:22:09;;;;;;;5.30;1.80;;;;;;;12.35;100.00;97949.36;272468;1270;22456;-85
2023/11/14 08:28:10;;;;;;;7.10;2.00;;;;;;;12.98;100.00;97952.91;272746;1269;22459;-86
2023/11/14 08:34:12;;;;;;;5.40;1.90;;;;;;;13.51;100.00;97962.17;272756;1270;22186;-87
2023/11/14 08:40:15;;;;;;;6.00;1.90;;;;;;;13.97;100.00;97959.95;272796;1269;22409;-86
2023/11/14 08:46:18;;;;;;;5.90;1.90;;;;;;;14.21;100.00;97958.16;272867;1270;23840;-86
2023/11/14 08:52:22;;;;;;;5.40;1.70;;;;;;;14.20;100.00;97946.69;272828;1270;22463;-84
